createdAt,value
2019-05-19T00:00:23.265Z,187.00
2019-05-19T00:00:58.554Z,187.00
2019-05-19T00:01:34.133Z,187.00
2019-05-19T00:02:09.447Z,187.00
2019-05-19T00:02:44.672Z,187.00
2019-05-19T00:03:19.861Z,187.00
2019-05-19T00:03:55.040Z,187.00
2019-05-19T00:04:30.648Z,187.00
2019-05-19T00:05:06.243Z,187.00
2019-05-19T00:05:41.603Z,187.00
2019-05-19T00:06:17.107Z,187.00
2019-05-19T00:06:52.275Z,187.00
2019-05-19T00:07:27.620Z,187.00
2019-05-19T00:08:03.031Z,187.00
2019-05-19T00:08:38.220Z,187.00
2019-05-19T00:09:16.504Z,187.00
2019-05-19T00:09:49.506Z,187.00
2019-05-19T00:10:24.999Z,187.00
2019-05-19T00:11:00.175Z,187.00
2019-05-19T00:11:35.476Z,187.00
2019-05-19T00:12:10.774Z,187.00
2019-05-19T00:12:46.067Z,187.00
2019-05-19T00:13:21.262Z,187.00
2019-05-19T00:13:56.541Z,187.00
2019-05-19T00:14:31.738Z,187.00
2019-05-19T00:15:07.206Z,187.00
2019-05-19T00:15:42.205Z,187.00
2019-05-19T00:16:17.502Z,187.00
2019-05-19T00:16:52.777Z,187.00
2019-05-19T00:17:27.907Z,187.00
2019-05-19T00:18:03.392Z,187.00
2019-05-19T00:18:38.890Z,187.00
2019-05-19T00:19:25.851Z,187.00
2019-05-19T00:19:49.553Z,187.00
2019-05-19T00:20:24.973Z,187.00
2019-05-19T00:21:00.251Z,187.00
2019-05-19T00:21:35.364Z,187.00
2019-05-19T00:22:10.468Z,187.00
2019-05-19T00:22:45.800Z,187.00
2019-05-19T00:23:21.058Z,187.00
2019-05-19T00:23:59.339Z,187.00
2019-05-19T00:24:31.437Z,187.00
2019-05-19T00:25:06.743Z,187.00
2019-05-19T00:25:42.120Z,187.00
2019-05-19T00:26:17.723Z,187.00
2019-05-19T00:26:53.126Z,187.00
2019-05-19T00:27:28.550Z,187.00
2019-05-19T00:28:03.758Z,187.00
2019-05-19T00:28:39.234Z,187.00
2019-05-19T00:29:14.528Z,187.00
2019-05-19T00:29:49.686Z,187.00
2019-05-19T00:30:24.875Z,187.00
2019-05-19T00:30:59.941Z,187.00
2019-05-19T00:31:35.254Z,187.00
2019-05-19T00:32:10.721Z,187.00
2019-05-19T00:32:46.242Z,187.00
2019-05-19T00:33:21.620Z,187.00
2019-05-19T00:33:56.728Z,187.00
2019-05-19T00:34:32.192Z,187.00
2019-05-19T00:35:07.298Z,187.00
2019-05-19T00:35:42.581Z,187.00
2019-05-19T00:36:19.614Z,187.00
2019-05-19T00:36:52.856Z,187.00
2019-05-19T00:37:28.388Z,187.00
2019-05-19T00:38:03.888Z,187.00
2019-05-19T00:38:39.079Z,187.00
2019-05-19T00:39:14.471Z,187.00
2019-05-19T00:39:49.681Z,187.00
2019-05-19T00:40:24.943Z,187.00
2019-05-19T00:41:00.437Z,187.00
2019-05-19T00:41:35.613Z,187.00
2019-05-19T00:42:10.914Z,187.00
2019-05-19T00:42:46.522Z,187.00
2019-05-19T00:43:21.803Z,187.00
2019-05-19T00:43:57.364Z,187.00
2019-05-19T00:44:32.665Z,187.00
2019-05-19T00:45:08.029Z,187.00
2019-05-19T00:45:43.533Z,187.00
2019-05-19T00:46:19.099Z,187.00
2019-05-19T00:46:54.497Z,187.00
2019-05-19T00:47:30.012Z,187.00
2019-05-19T00:48:05.413Z,187.00
2019-05-19T00:48:40.685Z,187.00
2019-05-19T00:49:16.186Z,187.00
2019-05-19T00:49:51.681Z,187.00
2019-05-19T00:50:27.069Z,187.00
2019-05-19T00:51:02.200Z,187.00
2019-05-19T00:51:37.545Z,187.00
2019-05-19T00:52:12.959Z,187.00
2019-05-19T00:52:48.451Z,187.00
2019-05-19T00:53:24.151Z,187.00
2019-05-19T00:53:59.525Z,187.00
2019-05-19T00:54:34.833Z,187.00
2019-05-19T00:55:10.195Z,187.00
2019-05-19T00:55:45.629Z,187.00
2019-05-19T00:56:20.788Z,187.00
2019-05-19T00:56:55.895Z,187.00
2019-05-19T00:57:31.587Z,187.00
2019-05-19T00:58:06.783Z,187.00
2019-05-19T00:58:42.157Z,187.00
2019-05-19T00:59:17.458Z,187.00
2019-05-19T00:59:52.740Z,187.00
2019-05-19T01:00:28.247Z,188.45
2019-05-19T01:01:03.835Z,75.00
2019-05-19T01:01:39.027Z,75.00
2019-05-19T01:02:14.384Z,75.00
2019-05-19T01:02:49.816Z,75.00
2019-05-19T01:03:25.107Z,75.00
2019-05-19T01:04:00.404Z,75.00
2019-05-19T01:04:35.679Z,75.00
2019-05-19T01:05:10.982Z,75.00
2019-05-19T01:05:46.246Z,75.00
2019-05-19T01:06:22.045Z,75.00
2019-05-19T01:06:57.315Z,75.00
2019-05-19T01:07:32.639Z,75.00
2019-05-19T01:08:08.255Z,75.00
2019-05-19T01:08:43.828Z,75.00
2019-05-19T01:09:19.328Z,75.00
2019-05-19T01:09:54.800Z,75.00
2019-05-19T01:10:30.096Z,75.00
2019-05-19T01:11:05.476Z,75.00
2019-05-19T01:11:40.780Z,75.00
2019-05-19T01:12:16.347Z,75.00
2019-05-19T01:12:51.788Z,75.00
2019-05-19T01:13:27.154Z,75.00
2019-05-19T01:14:02.662Z,75.00
2019-05-19T01:14:38.143Z,75.00
2019-05-19T01:15:13.653Z,75.00
2019-05-19T01:15:49.169Z,75.00
2019-05-19T01:16:24.639Z,75.00
2019-05-19T01:16:59.848Z,75.00
2019-05-19T01:17:35.352Z,75.00
2019-05-19T01:18:10.959Z,75.00
2019-05-19T01:18:46.628Z,75.00
2019-05-19T01:19:22.053Z,75.00
2019-05-19T01:19:57.514Z,75.00
2019-05-19T01:20:32.809Z,75.00
2019-05-19T01:21:07.995Z,75.00
2019-05-19T01:21:43.685Z,75.00
2019-05-19T01:22:18.880Z,75.00
2019-05-19T01:22:54.206Z,75.00
2019-05-19T01:23:29.484Z,75.00
2019-05-19T01:24:04.791Z,75.00
2019-05-19T01:24:40.054Z,75.00
2019-05-19T01:25:15.262Z,75.00
2019-05-19T01:25:50.433Z,75.00
2019-05-19T01:26:25.628Z,75.00
2019-05-19T01:27:00.804Z,75.00
2019-05-19T01:27:36.441Z,75.00
2019-05-19T01:28:11.655Z,75.00
2019-05-19T01:28:46.834Z,75.00
2019-05-19T01:29:22.639Z,75.00
2019-05-19T01:29:57.918Z,75.00
2019-05-19T01:30:33.117Z,75.00
2019-05-19T01:31:08.398Z,75.00
2019-05-19T01:31:43.817Z,75.00
2019-05-19T01:32:18.999Z,75.00
2019-05-19T01:32:54.835Z,75.00
2019-05-19T01:33:30.335Z,75.00
2019-05-19T01:34:05.525Z,75.00
2019-05-19T01:34:41.010Z,75.00
2019-05-19T01:35:16.314Z,75.00
2019-05-19T01:35:51.503Z,75.00
2019-05-19T01:36:26.774Z,75.00
2019-05-19T01:37:02.352Z,75.00
2019-05-19T01:37:37.974Z,75.00
2019-05-19T01:38:13.152Z,75.00
2019-05-19T01:38:48.253Z,75.00
2019-05-19T01:39:23.801Z,75.00
2019-05-19T01:39:59.024Z,75.00
2019-05-19T01:40:34.139Z,75.00
2019-05-19T01:41:09.310Z,75.00
2019-05-19T01:41:44.814Z,75.00
2019-05-19T01:42:20.099Z,75.00
2019-05-19T01:42:55.318Z,75.00
2019-05-19T01:43:30.518Z,75.00
2019-05-19T01:44:05.606Z,75.00
2019-05-19T01:44:40.915Z,75.00
2019-05-19T01:45:16.520Z,75.00
2019-05-19T01:45:51.617Z,75.00
2019-05-19T01:46:27.122Z,75.00
2019-05-19T01:47:02.405Z,75.00
2019-05-19T01:47:37.829Z,75.00
2019-05-19T01:48:13.400Z,75.00
2019-05-19T01:48:49.022Z,75.00
2019-05-19T01:49:24.290Z,75.00
2019-05-19T01:50:17.092Z,75.00
2019-05-19T01:50:34.989Z,75.00
2019-05-19T01:51:10.478Z,75.00
2019-05-19T01:51:45.687Z,75.00
2019-05-19T01:52:20.771Z,75.00
2019-05-19T01:52:56.490Z,75.00
2019-05-19T01:53:32.056Z,75.00
2019-05-19T01:54:07.562Z,75.00
2019-05-19T01:54:42.958Z,75.00
2019-05-19T01:55:18.050Z,75.00
2019-05-19T01:55:53.253Z,75.00
2019-05-19T01:56:28.457Z,75.00
2019-05-19T01:57:10.452Z,75.00
2019-05-19T01:57:46.067Z,75.00
2019-05-19T01:58:21.334Z,75.00
2019-05-19T01:58:57.023Z,75.00
2019-05-19T01:59:32.204Z,75.00
2019-05-19T02:00:07.646Z,75.00
2019-05-19T02:00:43.203Z,75.00
2019-05-19T02:01:18.472Z,75.00
2019-05-19T02:01:53.661Z,75.00
2019-05-19T02:02:29.158Z,75.00
2019-05-19T02:03:04.440Z,75.00
2019-05-19T02:03:39.704Z,75.00
2019-05-19T02:04:14.918Z,75.00
2019-05-19T02:04:50.497Z,75.00
2019-05-19T02:05:25.680Z,75.00
2019-05-19T02:06:00.973Z,75.00
2019-05-19T02:06:36.237Z,75.00
2019-05-19T02:07:11.422Z,75.00
2019-05-19T02:07:46.930Z,75.00
2019-05-19T02:08:22.227Z,75.00
2019-05-19T02:08:57.489Z,75.00
2019-05-19T02:09:33.070Z,75.00
2019-05-19T02:10:08.277Z,75.00
2019-05-19T02:10:43.460Z,75.00
2019-05-19T02:11:18.752Z,75.00
2019-05-19T02:11:54.528Z,75.00
2019-05-19T02:12:29.749Z,75.00
2019-05-19T02:13:05.355Z,75.00
2019-05-19T02:13:40.307Z,75.00
2019-05-19T02:14:15.392Z,75.00
2019-05-19T02:14:50.467Z,75.00
2019-05-19T02:15:26.230Z,75.00
2019-05-19T02:16:01.643Z,75.00
2019-05-19T02:16:36.939Z,75.00
2019-05-19T02:17:12.125Z,75.00
2019-05-19T02:17:47.540Z,75.00
2019-05-19T02:18:22.915Z,75.00
2019-05-19T02:18:58.409Z,75.00
2019-05-19T02:19:33.702Z,75.00
2019-05-19T02:20:08.999Z,75.00
2019-05-19T02:20:44.266Z,106.04
2019-05-19T02:21:19.844Z,210.00
2019-05-19T02:21:55.110Z,210.00
2019-05-19T02:22:30.344Z,210.00
2019-05-19T02:23:05.918Z,210.00
2019-05-19T02:23:41.019Z,210.00
2019-05-19T02:24:16.579Z,210.00
2019-05-19T02:24:51.771Z,210.00
2019-05-19T02:25:27.765Z,210.00
2019-05-19T02:26:03.038Z,210.00
2019-05-19T02:26:38.338Z,210.00
2019-05-19T02:27:13.414Z,210.00
2019-05-19T02:27:48.948Z,210.00
2019-05-19T02:28:24.540Z,210.00
2019-05-19T02:28:59.832Z,210.00
2019-05-19T02:29:35.102Z,210.00
2019-05-19T02:30:10.609Z,210.00
2019-05-19T02:30:46.370Z,210.00
2019-05-19T02:31:21.980Z,210.00
2019-05-19T02:31:57.145Z,210.00
2019-05-19T02:32:32.563Z,210.00
2019-05-19T02:33:07.927Z,210.00
2019-05-19T02:33:43.120Z,210.00
2019-05-19T02:34:18.608Z,210.00
2019-05-19T02:34:53.857Z,210.00
2019-05-19T02:35:29.266Z,210.00
2019-05-19T02:36:04.643Z,210.00
2019-05-19T02:36:40.116Z,210.00
2019-05-19T02:37:15.418Z,210.00
2019-05-19T02:37:50.622Z,210.00
2019-05-19T02:38:26.313Z,210.00
2019-05-19T02:39:01.797Z,210.00
2019-05-19T02:39:37.297Z,210.00
2019-05-19T02:40:12.596Z,210.00
2019-05-19T02:40:47.764Z,210.00
2019-05-19T02:41:23.360Z,210.00
2019-05-19T02:41:58.804Z,210.00
2019-05-19T02:42:34.234Z,210.00
2019-05-19T02:43:09.389Z,210.00
2019-05-19T02:43:44.783Z,210.00
2019-05-19T02:44:19.758Z,210.00
2019-05-19T02:44:55.358Z,210.00
2019-05-19T02:45:30.461Z,210.00
2019-05-19T02:46:06.136Z,210.00
2019-05-19T02:46:41.526Z,210.00
2019-05-19T02:47:16.933Z,210.00
2019-05-19T02:47:52.527Z,210.00
2019-05-19T02:48:27.900Z,210.00
2019-05-19T02:49:03.099Z,210.00
2019-05-19T02:49:38.267Z,210.00
2019-05-19T02:50:13.675Z,210.00
2019-05-19T02:50:52.684Z,210.00
2019-05-19T02:51:24.226Z,210.00
2019-05-19T02:51:59.833Z,210.00
2019-05-19T02:52:35.217Z,210.00
2019-05-19T02:53:10.784Z,210.00
2019-05-19T02:53:45.771Z,210.00
2019-05-19T02:54:21.334Z,210.00
2019-05-19T02:54:56.628Z,210.00
2019-05-19T02:55:32.011Z,210.00
2019-05-19T02:56:07.447Z,210.00
2019-05-19T02:56:42.705Z,210.00
2019-05-19T02:57:18.024Z,210.00
2019-05-19T02:57:53.312Z,210.00
2019-05-19T02:58:28.929Z,210.00
2019-05-19T02:59:03.999Z,210.00
2019-05-19T02:59:39.404Z,210.00
2019-05-19T03:00:14.582Z,210.00
2019-05-19T03:00:49.676Z,210.00
2019-05-19T03:01:24.843Z,210.00
2019-05-19T03:02:00.366Z,210.00
2019-05-19T03:02:35.547Z,210.00
2019-05-19T03:03:11.049Z,210.00
2019-05-19T03:03:46.277Z,210.00
2019-05-19T03:04:21.629Z,210.00
2019-05-19T03:04:57.118Z,210.00
2019-05-19T03:05:32.496Z,210.00
2019-05-19T03:06:07.801Z,210.00
2019-05-19T03:06:43.174Z,210.00
2019-05-19T03:07:18.706Z,210.00
2019-05-19T03:07:53.869Z,210.00
2019-05-19T03:08:29.496Z,210.00
2019-05-19T03:09:04.925Z,210.00
2019-05-19T03:09:40.437Z,210.00
2019-05-19T03:10:15.709Z,210.00
2019-05-19T03:10:50.900Z,210.00
2019-05-19T03:11:26.077Z,210.00
2019-05-19T03:12:01.416Z,210.00
2019-05-19T03:12:36.577Z,210.00
2019-05-19T03:13:11.984Z,210.00
2019-05-19T03:13:47.597Z,210.00
2019-05-19T03:14:22.683Z,210.00
2019-05-19T03:14:57.967Z,210.00
2019-05-19T03:15:33.154Z,210.00
2019-05-19T03:16:08.452Z,210.00
2019-05-19T03:16:43.875Z,210.00
2019-05-19T03:17:19.106Z,210.00
2019-05-19T03:17:54.379Z,210.00
2019-05-19T03:18:29.690Z,210.00
2019-05-19T03:19:04.961Z,210.00
2019-05-19T03:19:40.458Z,210.00
2019-05-19T03:20:15.628Z,210.00
2019-05-19T03:20:50.915Z,210.00
2019-05-19T03:21:26.187Z,210.00
2019-05-19T03:22:01.728Z,210.00
2019-05-19T03:22:37.304Z,210.00
2019-05-19T03:23:12.632Z,210.00
2019-05-19T03:23:48.296Z,210.00
2019-05-19T03:24:23.600Z,210.00
2019-05-19T03:24:59.068Z,210.00
2019-05-19T03:25:34.260Z,210.00
2019-05-19T03:26:09.824Z,210.00
2019-05-19T03:26:45.326Z,210.00
2019-05-19T03:27:20.559Z,210.00
2019-05-19T03:27:55.644Z,210.00
2019-05-19T03:28:30.678Z,210.00
2019-05-19T03:29:06.168Z,210.00
2019-05-19T03:29:41.764Z,210.00
2019-05-19T03:30:17.044Z,210.00
2019-05-19T03:30:52.455Z,210.00
2019-05-19T03:31:27.634Z,210.00
2019-05-19T03:32:02.943Z,210.00
2019-05-19T03:32:38.427Z,210.00
2019-05-19T03:33:13.763Z,210.00
2019-05-19T03:33:49.661Z,210.00
2019-05-19T03:34:24.831Z,210.00
2019-05-19T03:35:00.298Z,210.00
2019-05-19T03:35:35.606Z,210.00
2019-05-19T03:36:10.792Z,210.00
2019-05-19T03:36:45.990Z,210.00
2019-05-19T03:37:21.115Z,210.00
2019-05-19T03:37:56.621Z,210.00
2019-05-19T03:38:32.094Z,210.00
2019-05-19T03:39:07.468Z,210.00
2019-05-19T03:39:42.540Z,210.00
2019-05-19T03:40:17.854Z,210.00
2019-05-19T03:40:53.136Z,210.00
2019-05-19T03:41:28.621Z,210.00
2019-05-19T03:42:04.054Z,210.00
2019-05-19T03:42:39.408Z,210.00
2019-05-19T03:43:14.416Z,210.00
2019-05-19T03:43:49.599Z,210.00
2019-05-19T03:44:24.694Z,210.00
2019-05-19T03:44:59.997Z,210.00
2019-05-19T03:45:35.461Z,210.00
2019-05-19T03:46:11.157Z,210.00
2019-05-19T03:46:46.332Z,210.00
2019-05-19T03:47:21.817Z,210.00
2019-05-19T03:47:57.200Z,210.00
2019-05-19T03:48:32.699Z,210.00
2019-05-19T03:49:08.012Z,210.00
2019-05-19T03:49:43.275Z,210.00
2019-05-19T03:50:18.489Z,210.00
2019-05-19T03:50:54.165Z,210.00
2019-05-19T03:51:31.674Z,210.00
2019-05-19T03:52:04.843Z,210.00
2019-05-19T03:52:40.064Z,210.00
2019-05-19T03:53:15.464Z,210.00
2019-05-19T03:53:50.826Z,210.00
2019-05-19T03:54:26.175Z,210.00
2019-05-19T03:55:01.599Z,210.00
2019-05-19T03:55:37.323Z,210.00
2019-05-19T03:56:12.817Z,210.47
2019-05-19T03:56:48.307Z,23.88
2019-05-19T03:57:23.729Z,30.00
2019-05-19T03:57:58.998Z,30.00
2019-05-19T03:58:34.092Z,30.00
2019-05-19T03:59:09.467Z,30.00
2019-05-19T03:59:44.868Z,30.00
2019-05-19T04:00:20.147Z,30.00
2019-05-19T04:00:55.544Z,30.00
2019-05-19T04:01:30.916Z,30.00
2019-05-19T04:02:06.303Z,30.00
2019-05-19T04:02:41.645Z,30.00
2019-05-19T04:03:17.127Z,30.00
2019-05-19T04:03:52.425Z,30.00
2019-05-19T04:04:27.693Z,30.00
2019-05-19T04:05:02.814Z,30.00
2019-05-19T04:05:38.365Z,30.00
2019-05-19T04:06:13.751Z,30.00
2019-05-19T04:06:49.240Z,30.00
2019-05-19T04:07:24.347Z,30.00
2019-05-19T04:07:59.618Z,30.00
2019-05-19T04:08:35.002Z,30.00
2019-05-19T04:09:10.071Z,30.00
2019-05-19T04:09:45.361Z,30.00
2019-05-19T04:10:20.544Z,30.00
2019-05-19T04:10:56.036Z,30.00
2019-05-19T04:11:31.700Z,30.00
2019-05-19T04:12:07.103Z,30.00
2019-05-19T04:12:42.488Z,30.00
2019-05-19T04:13:17.986Z,30.00
2019-05-19T04:13:53.363Z,30.00
2019-05-19T04:14:28.869Z,30.00
2019-05-19T04:15:04.339Z,30.00
2019-05-19T04:15:39.833Z,30.00
2019-05-19T04:16:14.999Z,30.00
2019-05-19T04:16:50.294Z,30.00
2019-05-19T04:17:25.880Z,30.00
2019-05-19T04:18:01.282Z,30.00
2019-05-19T04:18:36.671Z,30.00
2019-05-19T04:19:11.949Z,30.00
2019-05-19T04:19:47.430Z,30.00
2019-05-19T04:20:22.823Z,30.00
2019-05-19T04:20:58.095Z,30.00
2019-05-19T04:21:47.509Z,30.00
2019-05-19T04:22:09.075Z,30.00
2019-05-19T04:22:44.813Z,30.00
2019-05-19T04:23:20.583Z,30.00
2019-05-19T04:23:55.977Z,30.00
2019-05-19T04:24:31.340Z,30.00
2019-05-19T04:25:06.936Z,30.00
2019-05-19T04:25:42.404Z,30.00
2019-05-19T04:26:18.014Z,30.00
2019-05-19T04:26:53.274Z,70.97
2019-05-19T04:27:28.686Z,75.00
2019-05-19T04:28:04.076Z,75.00
2019-05-19T04:28:39.282Z,75.00
2019-05-19T04:29:14.560Z,75.00
2019-05-19T04:29:49.796Z,75.00
2019-05-19T04:30:25.067Z,75.00
2019-05-19T04:31:00.460Z,75.00
2019-05-19T04:31:36.023Z,84.44
2019-05-19T04:32:11.612Z,75.00
2019-05-19T04:32:47.132Z,75.00
2019-05-19T04:33:22.326Z,75.00
2019-05-19T04:33:57.496Z,75.00
2019-05-19T04:34:32.583Z,75.00
2019-05-19T04:35:07.768Z,75.00
2019-05-19T04:35:42.866Z,75.00
2019-05-19T04:36:17.944Z,75.00
2019-05-19T04:36:53.533Z,75.00
2019-05-19T04:37:28.929Z,75.00
2019-05-19T04:38:04.329Z,75.00
2019-05-19T04:38:39.680Z,75.00
2019-05-19T04:39:14.991Z,75.00
2019-05-19T04:39:50.103Z,75.00
2019-05-19T04:40:25.587Z,75.00
2019-05-19T04:41:00.774Z,291.89
2019-05-19T04:41:39.842Z,300.00
2019-05-19T04:42:11.469Z,300.00
2019-05-19T04:42:46.938Z,300.00
2019-05-19T04:43:22.338Z,300.00
2019-05-19T04:43:57.608Z,300.00
2019-05-19T04:44:33.307Z,300.00
2019-05-19T04:45:08.788Z,300.00
2019-05-19T04:45:44.079Z,300.00
2019-05-19T04:46:19.162Z,300.00
2019-05-19T04:46:55.707Z,300.00
2019-05-19T04:47:30.984Z,300.00
2019-05-19T04:48:09.439Z,300.00
2019-05-19T04:48:41.625Z,286.17
2019-05-19T04:49:17.021Z,187.00
2019-05-19T04:49:52.387Z,187.00
2019-05-19T04:50:27.782Z,187.00
2019-05-19T04:51:03.084Z,187.00
2019-05-19T04:51:38.269Z,187.00
2019-05-19T04:52:13.970Z,187.00
2019-05-19T04:52:49.361Z,187.00
2019-05-19T04:53:24.522Z,187.00
2019-05-19T04:54:00.029Z,187.00
2019-05-19T04:54:35.619Z,187.00
2019-05-19T04:55:10.969Z,187.00
2019-05-19T04:55:46.351Z,187.00
2019-05-19T04:56:22.161Z,187.00
2019-05-19T04:56:57.235Z,187.00
2019-05-19T04:57:32.525Z,187.00
2019-05-19T04:58:07.937Z,187.00
2019-05-19T04:58:43.340Z,187.00
2019-05-19T04:59:18.514Z,187.00
2019-05-19T04:59:53.917Z,187.00
2019-05-19T05:00:29.181Z,187.00
2019-05-19T05:01:04.489Z,187.00
2019-05-19T05:01:39.575Z,187.00
2019-05-19T05:02:14.911Z,187.00
2019-05-19T05:02:50.417Z,187.00
2019-05-19T05:03:26.051Z,187.00
2019-05-19T05:04:01.410Z,187.00
2019-05-19T05:04:36.722Z,187.00
2019-05-19T05:05:11.996Z,187.00
2019-05-19T05:05:47.590Z,187.00
2019-05-19T05:06:23.071Z,187.00
2019-05-19T05:06:58.473Z,187.00
2019-05-19T05:07:33.557Z,187.00
2019-05-19T05:08:24.883Z,187.00
2019-05-19T05:08:44.227Z,187.00
2019-05-19T05:09:19.318Z,187.00
2019-05-19T05:09:54.593Z,187.00
2019-05-19T05:10:30.184Z,187.00
2019-05-19T05:11:05.667Z,187.38
2019-05-19T05:11:40.958Z,239.66
2019-05-19T05:12:16.521Z,243.07
2019-05-19T05:12:52.047Z,242.63
2019-05-19T05:13:27.418Z,239.97
2019-05-19T05:14:02.606Z,240.77
2019-05-19T05:14:37.971Z,240.67
2019-05-19T05:15:13.361Z,241.78
2019-05-19T05:15:48.743Z,242.19
2019-05-19T05:16:23.945Z,241.93
2019-05-19T05:16:59.218Z,244.22
2019-05-19T05:17:34.851Z,241.49
2019-05-19T05:18:10.055Z,240.05
2019-05-19T05:18:47.831Z,241.91
2019-05-19T05:19:20.890Z,242.49
2019-05-19T05:19:55.917Z,242.92
2019-05-19T05:20:31.210Z,242.06
2019-05-19T05:21:06.680Z,241.03
2019-05-19T05:21:42.089Z,240.92
2019-05-19T05:22:22.201Z,239.66
2019-05-19T05:22:52.577Z,238.63
2019-05-19T05:23:27.982Z,241.76
2019-05-19T05:24:03.370Z,238.25
2019-05-19T05:24:38.552Z,237.75
2019-05-19T05:25:13.924Z,238.63
2019-05-19T05:25:49.148Z,237.21
2019-05-19T05:26:24.541Z,239.41
2019-05-19T05:26:59.828Z,236.31
2019-05-19T05:27:35.158Z,234.57
2019-05-19T05:28:10.542Z,234.91
2019-05-19T05:28:45.937Z,234.73
2019-05-19T05:29:21.346Z,234.39
2019-05-19T05:29:56.814Z,233.19
2019-05-19T05:30:32.104Z,233.00
2019-05-19T05:31:07.306Z,234.03
2019-05-19T05:31:42.895Z,233.88
2019-05-19T05:32:18.001Z,190.57
2019-05-19T05:32:53.225Z,187.00
2019-05-19T05:33:28.323Z,187.00
2019-05-19T05:34:03.603Z,187.00
2019-05-19T05:34:38.910Z,187.00
2019-05-19T05:35:14.079Z,187.00
2019-05-19T05:35:49.998Z,187.00
2019-05-19T05:36:27.746Z,184.81
2019-05-19T05:37:00.561Z,210.00
2019-05-19T05:37:36.095Z,210.00
2019-05-19T05:38:11.369Z,210.00
2019-05-19T05:38:46.670Z,197.37
2019-05-19T05:39:22.239Z,187.00
2019-05-19T05:39:57.638Z,187.00
2019-05-19T05:40:33.042Z,187.00
2019-05-19T05:41:08.425Z,187.00
2019-05-19T05:41:43.823Z,187.00
2019-05-19T05:42:19.312Z,187.00
2019-05-19T05:42:54.699Z,187.00
2019-05-19T05:43:29.977Z,187.00
2019-05-19T05:44:05.278Z,187.00
2019-05-19T05:44:40.273Z,187.00
2019-05-19T05:45:15.555Z,172.34
2019-05-19T05:45:51.081Z,143.00
2019-05-19T05:46:26.397Z,143.00
2019-05-19T05:47:01.582Z,143.00
2019-05-19T05:47:36.976Z,143.00
2019-05-19T05:48:12.491Z,143.00
2019-05-19T05:48:47.661Z,143.00
2019-05-19T05:49:22.976Z,143.00
2019-05-19T05:49:58.076Z,143.00
2019-05-19T05:50:33.252Z,133.56
2019-05-19T05:51:08.662Z,106.88
2019-05-19T05:51:43.922Z,222.91
2019-05-19T05:52:19.640Z,200.03
2019-05-19T05:52:54.953Z,52.44
2019-05-19T05:53:30.352Z,148.93
2019-05-19T05:54:05.532Z,201.07
2019-05-19T05:54:40.844Z,181.85
2019-05-19T05:55:16.218Z,179.57
2019-05-19T05:55:51.422Z,237.48
2019-05-19T05:56:26.730Z,241.41
2019-05-19T05:57:02.105Z,137.54
2019-05-19T05:57:37.438Z,143.00
2019-05-19T05:58:12.610Z,143.00
2019-05-19T05:58:48.181Z,143.00
2019-05-19T05:59:23.350Z,143.00
2019-05-19T05:59:58.640Z,143.00
2019-05-19T06:00:33.915Z,143.00
2019-05-19T06:01:09.619Z,143.00
2019-05-19T06:01:45.088Z,143.00
2019-05-19T06:02:20.301Z,143.00
2019-05-19T06:02:55.721Z,143.00
2019-05-19T06:03:30.993Z,147.91
2019-05-19T06:04:06.176Z,187.00
2019-05-19T06:04:42.441Z,187.00
2019-05-19T06:05:17.814Z,187.00
2019-05-19T06:05:53.008Z,187.00
2019-05-19T06:06:28.183Z,187.00
2019-05-19T06:07:03.482Z,208.90
2019-05-19T06:07:38.682Z,204.59
2019-05-19T06:08:14.315Z,83.54
2019-05-19T06:08:49.384Z,45.64
2019-05-19T06:09:24.486Z,75.00
2019-05-19T06:09:59.610Z,100.34
2019-05-19T06:10:34.734Z,143.00
2019-05-19T06:11:10.046Z,103.37
2019-05-19T06:11:45.322Z,75.95
2019-05-19T06:12:20.630Z,113.82
2019-05-19T06:12:55.955Z,187.00
2019-05-19T06:13:31.447Z,194.92
2019-05-19T06:14:07.039Z,160.99
2019-05-19T06:14:42.629Z,210.00
2019-05-19T06:15:17.706Z,210.00
2019-05-19T06:15:53.637Z,186.15
2019-05-19T06:16:28.889Z,187.00
2019-05-19T06:17:04.503Z,187.00
2019-05-19T06:17:39.810Z,186.43
2019-05-19T06:18:15.147Z,141.25
2019-05-19T06:18:50.189Z,143.00
2019-05-19T06:19:25.401Z,286.38
2019-05-19T06:20:00.777Z,300.00
2019-05-19T06:20:36.178Z,49.16
2019-05-19T06:21:11.360Z,200.44
2019-05-19T06:21:46.661Z,210.00
2019-05-19T06:22:22.047Z,210.00
2019-05-19T06:22:57.417Z,210.00
2019-05-19T06:23:32.756Z,234.43
2019-05-19T06:24:07.943Z,243.92
2019-05-19T06:24:43.426Z,243.36
2019-05-19T06:25:18.782Z,244.67
2019-05-19T06:25:53.822Z,247.82
2019-05-19T06:26:29.436Z,242.92
2019-05-19T06:27:04.820Z,246.73
2019-05-19T06:27:40.055Z,243.06
2019-05-19T06:28:15.430Z,243.07
2019-05-19T06:28:50.929Z,243.64
2019-05-19T06:29:26.200Z,229.24
2019-05-19T06:30:01.611Z,199.91
2019-05-19T06:30:36.910Z,187.00
2019-05-19T06:31:12.295Z,187.00
2019-05-19T06:31:47.587Z,187.00
2019-05-19T06:32:22.863Z,187.00
2019-05-19T06:32:58.105Z,88.88
2019-05-19T06:33:33.569Z,234.11
2019-05-19T06:34:08.965Z,162.37
2019-05-19T06:34:44.241Z,22.06
2019-05-19T06:35:19.563Z,75.00
2019-05-19T06:35:54.965Z,192.51
2019-05-19T06:36:30.446Z,187.00
2019-05-19T06:37:05.868Z,191.01
2019-05-19T06:37:41.165Z,162.75
2019-05-19T06:38:16.167Z,149.08
2019-05-19T06:38:51.344Z,194.07
2019-05-19T06:39:26.543Z,74.18
2019-05-19T06:40:02.031Z,153.20
2019-05-19T06:40:37.439Z,176.97
2019-05-19T06:41:12.624Z,201.05
2019-05-19T06:41:47.831Z,197.75
2019-05-19T06:42:23.011Z,187.00
2019-05-19T06:42:58.348Z,116.05
2019-05-19T06:43:33.835Z,119.42
2019-05-19T06:44:09.425Z,210.00
2019-05-19T06:44:44.910Z,210.19
2019-05-19T06:45:20.204Z,111.04
2019-05-19T06:45:55.614Z,95.22
2019-05-19T06:46:30.994Z,90.92
2019-05-19T06:47:06.396Z,132.77
2019-05-19T06:47:41.396Z,79.33
2019-05-19T06:48:16.820Z,187.00
2019-05-19T06:48:51.894Z,187.74
2019-05-19T06:49:27.204Z,140.54
2019-05-19T06:50:02.465Z,45.95
2019-05-19T06:50:40.663Z,41.17
2019-05-19T06:51:13.309Z,71.86
2019-05-19T06:51:48.589Z,112.75
2019-05-19T06:52:24.220Z,50.25
2019-05-19T06:53:12.733Z,34.78
2019-05-19T06:53:35.205Z,185.00
2019-05-19T06:54:10.303Z,161.32
2019-05-19T06:54:45.810Z,124.79
2019-05-19T06:55:21.313Z,75.00
2019-05-19T06:55:56.487Z,75.00
2019-05-19T06:56:31.716Z,289.97
2019-05-19T06:57:07.190Z,217.71
2019-05-19T06:57:42.621Z,182.46
2019-05-19T06:58:18.127Z,69.58
2019-05-19T06:58:53.423Z,178.43
2019-05-19T06:59:28.902Z,192.46
2019-05-19T07:00:04.097Z,71.09
2019-05-19T07:00:39.274Z,81.19
2019-05-19T07:01:14.674Z,132.48
2019-05-19T07:01:50.045Z,168.62
2019-05-19T07:02:25.566Z,159.75
2019-05-19T07:03:00.956Z,196.69
2019-05-19T07:03:36.249Z,194.40
2019-05-19T07:04:11.470Z,234.09
2019-05-19T07:04:47.447Z,236.28
2019-05-19T07:05:22.842Z,53.09
2019-05-19T07:05:58.206Z,6.16
2019-05-19T07:06:34.277Z,122.61
2019-05-19T07:07:08.996Z,142.41
2019-05-19T07:07:44.207Z,199.46
2019-05-19T07:08:19.696Z,75.00
2019-05-19T07:08:55.011Z,99.03
2019-05-19T07:09:30.433Z,150.02
2019-05-19T07:10:06.134Z,147.91
2019-05-19T07:10:41.428Z,143.00
2019-05-19T07:11:17.029Z,143.00
2019-05-19T07:11:52.333Z,143.00
2019-05-19T07:12:27.740Z,143.00
2019-05-19T07:13:03.254Z,30.00
2019-05-19T07:13:38.515Z,136.53
2019-05-19T07:14:13.826Z,185.37
2019-05-19T07:14:49.114Z,274.64
2019-05-19T07:15:24.622Z,292.76
2019-05-19T07:15:59.749Z,226.22
2019-05-19T07:16:35.017Z,252.21
2019-05-19T07:17:10.319Z,287.16
2019-05-19T07:17:45.517Z,217.71
2019-05-19T07:18:21.020Z,189.49
2019-05-19T07:18:56.400Z,222.66
2019-05-19T07:19:31.921Z,200.49
2019-05-19T07:20:07.380Z,187.00
2019-05-19T07:20:42.885Z,171.95
2019-05-19T07:21:18.185Z,210.82
2019-05-19T07:21:53.453Z,199.08
2019-05-19T07:22:28.681Z,187.00
2019-05-19T07:23:03.848Z,187.56
2019-05-19T07:23:39.650Z,193.45
2019-05-19T07:24:15.038Z,180.56
2019-05-19T07:24:50.379Z,195.86
2019-05-19T07:25:25.800Z,198.84